createdAt,value
2016-07-19T00:00:23.501Z,0
2016-07-19T00:01:23.481Z,0
2016-07-19T00:02:22.765Z,0
2016-07-19T00:03:22.758Z,0
2016-07-19T00:04:24.152Z,0
2016-07-19T00:05:22.734Z,0
2016-07-19T00:06:24.843Z,0
2016-07-19T00:07:22.719Z,0
2016-07-19T00:08:23.445Z,0
2016-07-19T00:09:22.707Z,0
2016-07-19T00:10:24.104Z,0
2016-07-19T00:11:22.675Z,0
2016-07-19T00:12:23.375Z,0
2016-07-19T00:13:23.373Z,0
2016-07-19T00:14:24.061Z,0
2016-07-19T00:15:23.350Z,0
2016-07-19T00:16:22.625Z,0
2016-07-19T00:17:24.741Z,0
2016-07-19T00:18:24.016Z,0
2016-07-19T00:19:24.013Z,0
2016-07-19T00:20:24.050Z,0
2016-07-19T00:21:22.590Z,0
2016-07-19T00:22:23.992Z,0
2016-07-19T00:23:23.320Z,0
2016-07-19T00:24:23.264Z,0
2016-07-19T00:25:22.588Z,0
2016-07-19T00:26:23.239Z,0
2016-07-19T00:27:23.231Z,0
2016-07-19T00:28:22.610Z,0
2016-07-19T00:29:23.208Z,0
2016-07-19T00:30:24.617Z,0
2016-07-19T00:31:23.192Z,0
2016-07-19T00:32:23.900Z,0
2016-07-19T00:33:22.466Z,0
2016-07-19T00:34:23.165Z,0
2016-07-19T00:35:23.354Z,0
2016-07-19T00:36:24.576Z,0
2016-07-19T00:37:23.841Z,0
2016-07-19T00:38:23.124Z,0
2016-07-19T00:39:24.534Z,0
2016-07-19T00:40:24.522Z,0
2016-07-19T00:41:23.851Z,0
2016-07-19T00:42:24.513Z,0
2016-07-19T00:43:22.379Z,0
2016-07-19T00:44:23.112Z,0
2016-07-19T00:45:23.062Z,0
2016-07-19T00:46:23.754Z,0
2016-07-19T00:47:23.747Z,0
2016-07-19T00:48:23.789Z,0
2016-07-19T00:49:24.432Z,0
2016-07-19T00:50:23.718Z,0
2016-07-19T00:51:23.008Z,0
2016-07-19T00:52:22.990Z,0
2016-07-19T00:53:24.394Z,0
2016-07-19T00:54:22.263Z,0
2016-07-19T00:55:22.958Z,0
2016-07-19T00:56:22.947Z,0
2016-07-19T00:57:22.946Z,0
2016-07-19T00:58:22.931Z,0
2016-07-19T00:59:24.332Z,0
2016-07-19T01:00:22.916Z,0
2016-07-19T01:01:22.902Z,0
2016-07-19T01:02:22.892Z,0
2016-07-19T01:03:22.886Z,0
2016-07-19T01:04:23.586Z,0
2016-07-19T01:05:22.154Z,0
2016-07-19T01:06:22.147Z,0
2016-07-19T01:07:22.135Z,0
2016-07-19T01:08:22.226Z,0
2016-07-19T01:09:23.528Z,0
2016-07-19T01:10:23.516Z,0
2016-07-19T01:11:23.506Z,0
2016-07-19T01:12:23.505Z,0
2016-07-19T01:13:23.485Z,0
2016-07-19T01:14:23.492Z,0
2016-07-19T01:15:23.472Z,0
2016-07-19T01:16:22.755Z,0
2016-07-19T01:17:23.451Z,0
2016-07-19T01:18:22.034Z,0
2016-07-19T01:19:22.723Z,0
2016-07-19T01:20:22.711Z,0
2016-07-19T01:21:23.413Z,0
2016-07-19T01:22:22.693Z,0
2016-07-19T01:23:23.388Z,0
2016-07-19T01:24:22.679Z,0
2016-07-19T01:25:23.378Z,0
2016-07-19T01:26:22.649Z,0
2016-07-19T01:27:22.641Z,0
2016-07-19T01:28:23.338Z,0
2016-07-19T01:29:21.913Z,0
2016-07-19T01:30:21.911Z,0
2016-07-19T01:31:23.312Z,0
2016-07-19T01:32:23.309Z,0
2016-07-19T01:33:23.290Z,0
2016-07-19T01:34:22.630Z,0
2016-07-19T01:35:23.271Z,0
2016-07-19T01:36:22.550Z,0
2016-07-19T01:37:21.834Z,0
2016-07-19T01:38:22.536Z,0
2016-07-19T01:39:21.810Z,0
2016-07-19T01:40:23.924Z,0
2016-07-19T01:41:21.800Z,0
2016-07-19T01:42:21.787Z,0
2016-07-19T01:43:22.484Z,0
2016-07-19T01:44:21.791Z,0
2016-07-19T01:45:22.468Z,0
2016-07-19T01:46:23.920Z,0
2016-07-19T01:47:22.439Z,0
2016-07-19T01:48:21.748Z,0
2016-07-19T01:49:22.421Z,0
2016-07-19T01:50:22.414Z,0
2016-07-19T01:51:21.690Z,0
2016-07-19T01:52:22.386Z,0
2016-07-19T01:53:22.375Z,0
2016-07-19T01:54:23.782Z,0
2016-07-19T01:55:22.409Z,0
2016-07-19T01:56:23.055Z,0
2016-07-19T01:57:22.340Z,0
2016-07-19T01:58:23.034Z,0
2016-07-19T01:59:22.323Z,0
2016-07-19T02:00:22.315Z,0
2016-07-19T02:01:23.004Z,0
2016-07-19T02:02:22.290Z,0
2016-07-19T02:03:22.279Z,0
2016-07-19T02:04:23.674Z,0
2016-07-19T02:05:22.256Z,0
2016-07-19T02:06:22.247Z,0
2016-07-19T02:07:22.237Z,0
2016-07-19T02:08:22.226Z,0
2016-07-19T02:09:21.506Z,0
2016-07-19T02:10:21.492Z,0
2016-07-19T02:11:22.895Z,0
2016-07-19T02:12:22.183Z,0
2016-07-19T02:13:22.885Z,0
2016-07-19T02:14:21.452Z,0
2016-07-19T02:15:21.440Z,0
2016-07-19T02:16:23.565Z,0
2016-07-19T02:17:21.431Z,0
2016-07-19T02:18:22.828Z,0
2016-07-19T02:19:22.822Z,0
2016-07-19T02:20:22.805Z,0
2016-07-19T02:21:22.090Z,0
2016-07-19T02:22:22.074Z,0
2016-07-19T02:23:22.776Z,0
2016-07-19T02:24:22.056Z,0
2016-07-19T02:25:21.338Z,0
2016-07-19T02:26:22.037Z,0
2016-07-19T02:27:23.437Z,0
2016-07-19T02:28:22.723Z,0
2016-07-19T02:29:22.719Z,0
2016-07-19T02:30:21.990Z,0
2016-07-19T02:31:21.273Z,0
2016-07-19T02:32:22.026Z,0
2016-07-19T02:33:22.668Z,0
2016-07-19T02:34:21.250Z,0
2016-07-19T02:35:22.139Z,0
2016-07-19T02:36:22.638Z,0
2016-07-19T02:37:21.915Z,0
2016-07-19T02:38:21.200Z,0
2016-07-19T02:39:21.897Z,0
2016-07-19T02:40:23.305Z,0
2016-07-19T02:41:21.871Z,0
2016-07-19T02:42:21.169Z,0
2016-07-19T02:43:22.574Z,0
2016-07-19T02:44:22.557Z,0
2016-07-19T02:45:22.546Z,0
2016-07-19T02:46:22.541Z,0
2016-07-19T02:47:21.816Z,0
2016-07-19T02:48:22.505Z,0
2016-07-19T02:49:22.498Z,0
2016-07-19T02:50:21.782Z,0
2016-07-19T02:51:21.771Z,0
2016-07-19T02:52:21.769Z,0
2016-07-19T02:53:21.751Z,0
2016-07-19T02:54:21.736Z,0
2016-07-19T02:55:21.020Z,0
2016-07-19T02:56:22.434Z,0
2016-07-19T02:57:22.420Z,0
2016-07-19T02:58:22.409Z,4
2016-07-19T02:59:21.731Z,4
2016-07-19T03:00:21.681Z,4
2016-07-19T03:01:20.961Z,0
2016-07-19T03:02:22.360Z,4
2016-07-19T03:03:21.638Z,4
2016-07-19T03:04:23.060Z,4
2016-07-19T03:05:21.618Z,4
2016-07-19T03:06:22.329Z,4
2016-07-19T03:07:22.332Z,8
2016-07-19T03:08:22.328Z,8
2016-07-19T03:09:22.291Z,4
2016-07-19T03:10:22.269Z,8
2016-07-19T03:11:22.263Z,12
2016-07-19T03:12:22.955Z,12
2016-07-19T03:13:22.256Z,12
2016-07-19T03:14:22.228Z,16
2016-07-19T03:15:22.220Z,16
2016-07-19T03:16:20.793Z,20
2016-07-19T03:17:22.199Z,20
2016-07-19T03:18:21.479Z,28
2016-07-19T03:19:22.177Z,28
2016-07-19T03:20:21.459Z,36
2016-07-19T03:21:21.448Z,40
2016-07-19T03:22:22.855Z,44
2016-07-19T03:23:22.835Z,48
2016-07-19T03:24:21.414Z,56
2016-07-19T03:25:20.692Z,60
2016-07-19T03:26:21.391Z,64
2016-07-19T03:27:21.410Z,72
2016-07-19T03:28:20.664Z,84
2016-07-19T03:29:22.771Z,92
2016-07-19T03:30:21.353Z,100
2016-07-19T03:31:21.343Z,108
2016-07-19T03:32:21.324Z,120
2016-07-19T03:33:20.608Z,128
2016-07-19T03:34:21.299Z,136
2016-07-19T03:35:21.297Z,152
2016-07-19T03:36:21.990Z,164
2016-07-19T03:37:21.978Z,176
2016-07-19T03:38:21.257Z,188
2016-07-19T03:39:21.246Z,200
2016-07-19T03:40:21.947Z,216
2016-07-19T03:41:21.223Z,228
2016-07-19T03:42:21.214Z,244
2016-07-19T03:43:21.203Z,256
2016-07-19T03:44:20.487Z,272
2016-07-19T03:45:21.892Z,292
2016-07-19T03:46:21.169Z,304
2016-07-19T03:47:20.456Z,320
2016-07-19T03:48:20.437Z,336
2016-07-19T03:49:21.187Z,356
2016-07-19T03:50:21.130Z,368
2016-07-19T03:51:21.125Z,388
2016-07-19T03:52:22.517Z,404
2016-07-19T03:53:21.105Z,420
2016-07-19T03:54:21.787Z,440
2016-07-19T03:55:21.781Z,456
2016-07-19T03:56:20.354Z,472
2016-07-19T03:57:21.810Z,492
2016-07-19T03:58:22.447Z,508
2016-07-19T03:59:21.027Z,524
2016-07-19T04:00:21.015Z,544
2016-07-19T04:01:21.006Z,560
2016-07-19T04:02:20.988Z,576
2016-07-19T04:03:20.982Z,592
2016-07-19T04:04:21.676Z,608
2016-07-19T04:05:20.960Z,624
2016-07-19T04:06:21.649Z,644
2016-07-19T04:07:20.940Z,660
2016-07-19T04:08:22.345Z,676
2016-07-19T04:09:20.923Z,688
2016-07-19T04:10:21.608Z,708
2016-07-19T04:11:20.897Z,720
2016-07-19T04:12:21.588Z,736
2016-07-19T04:13:20.160Z,752
2016-07-19T04:14:20.863Z,768
2016-07-19T04:15:21.552Z,780
2016-07-19T04:16:21.545Z,796
2016-07-19T04:17:20.120Z,812
2016-07-19T04:18:21.521Z,824
2016-07-19T04:19:20.813Z,840
2016-07-19T04:20:21.502Z,852
2016-07-19T04:21:22.201Z,864
2016-07-19T04:22:20.775Z,876
2016-07-19T04:23:20.771Z,888
2016-07-19T04:24:20.752Z,904
2016-07-19T04:25:20.738Z,916
2016-07-19T04:26:21.438Z,928
2016-07-19T04:27:21.524Z,940
2016-07-19T04:28:21.411Z,952
2016-07-19T04:29:21.400Z,960
2016-07-19T04:30:20.690Z,976
2016-07-19T04:31:20.677Z,988
2016-07-19T04:32:19.952Z,996
2016-07-19T04:33:21.371Z,1008
2016-07-19T04:34:21.353Z,1020
2016-07-19T04:35:20.829Z,1028
2016-07-19T04:36:20.621Z,1036
2016-07-19T04:37:21.313Z,1048
2016-07-19T04:38:20.609Z,1056
2016-07-19T04:39:21.291Z,1068
2016-07-19T04:40:20.575Z,1076
2016-07-19T04:41:19.857Z,1084
2016-07-19T04:42:19.848Z,1096
2016-07-19T04:43:21.249Z,1104
2016-07-19T04:44:21.240Z,1112
2016-07-19T04:45:20.528Z,1120
2016-07-19T04:46:19.852Z,1128
2016-07-19T04:47:22.143Z,1140
2016-07-19T04:48:20.499Z,1144
2016-07-19T04:49:21.188Z,1156
2016-07-19T04:50:20.466Z,1164
2016-07-19T04:51:20.459Z,1172
2016-07-19T04:52:19.742Z,1180
2016-07-19T04:53:20.436Z,1188
2016-07-19T04:54:20.422Z,1192
2016-07-19T04:55:20.416Z,1200
2016-07-19T04:56:19.696Z,1212
2016-07-19T04:57:20.387Z,1220
2016-07-19T04:58:20.382Z,1228
2016-07-19T04:59:21.784Z,1232
2016-07-19T05:00:19.679Z,1244
2016-07-19T05:01:21.058Z,1248
2016-07-19T05:02:20.356Z,1256
2016-07-19T05:03:20.329Z,1264
2016-07-19T05:04:20.322Z,1272
2016-07-19T05:05:20.307Z,1276
2016-07-19T05:06:21.013Z,1284
2016-07-19T05:07:21.046Z,1292
2016-07-19T05:08:20.289Z,1300
2016-07-19T05:09:20.261Z,1304
2016-07-19T05:10:20.256Z,1312
2016-07-19T05:11:20.244Z,1320
2016-07-19T05:12:21.642Z,1324
2016-07-19T05:13:20.233Z,1332
2016-07-19T05:14:19.512Z,1340
2016-07-19T05:15:20.910Z,1344
2016-07-19T05:16:20.901Z,1352
2016-07-19T05:17:20.901Z,1356
2016-07-19T05:18:20.177Z,1360
2016-07-19T05:19:20.154Z,1368
2016-07-19T05:20:19.439Z,1372
2016-07-19T05:21:19.431Z,1380
2016-07-19T05:22:20.882Z,1384
2016-07-19T05:23:19.405Z,1392
2016-07-19T05:24:21.519Z,1396
2016-07-19T05:25:20.092Z,1404
2016-07-19T05:26:20.806Z,1408
2016-07-19T05:27:20.780Z,1412
2016-07-19T05:28:20.773Z,1420
2016-07-19T05:29:20.763Z,1428
2016-07-19T05:30:20.805Z,1432
2016-07-19T05:31:20.029Z,1436
2016-07-19T05:32:19.318Z,1444
2016-07-19T05:33:20.721Z,1448
2016-07-19T05:34:20.002Z,1452
2016-07-19T05:35:19.286Z,1460
2016-07-19T05:36:20.694Z,1464
2016-07-19T05:37:19.258Z,1472
2016-07-19T05:38:19.968Z,1472
2016-07-19T05:39:19.245Z,1480
2016-07-19T05:40:19.937Z,1484
2016-07-19T05:42:19.932Z,1492
2016-07-19T05:43:19.912Z,1496
2016-07-19T05:44:20.609Z,1500
2016-07-19T05:45:20.594Z,1504
2016-07-19T05:46:21.297Z,1512
2016-07-19T05:47:20.577Z,1516
2016-07-19T05:48:19.154Z,1524
2016-07-19T05:49:19.862Z,1532
2016-07-19T05:50:20.595Z,1536
2016-07-19T05:51:19.833Z,1544
2016-07-19T05:52:20.528Z,1548
2016-07-19T05:53:19.823Z,1556
2016-07-19T05:54:19.099Z,1560
2016-07-19T05:55:19.088Z,1568
2016-07-19T05:56:19.781Z,1572
2016-07-19T05:57:19.768Z,1576
2016-07-19T05:58:19.766Z,1580
2016-07-19T05:59:19.749Z,1584
2016-07-19T06:00:19.748Z,1588
2016-07-19T06:01:20.445Z,1596
2016-07-19T06:02:20.431Z,1596
2016-07-19T06:03:19.020Z,1604
2016-07-19T06:04:19.707Z,1604
2016-07-19T06:05:19.719Z,1612
2016-07-19T06:06:18.984Z,1616
2016-07-19T06:07:19.688Z,1624
2016-07-19T06:08:21.132Z,1628
2016-07-19T06:09:20.364Z,1636
2016-07-19T06:10:21.068Z,1644
2016-07-19T06:11:19.640Z,1648
2016-07-19T06:12:18.938Z,1656
2016-07-19T06:13:19.623Z,1656
2016-07-19T06:14:19.623Z,1664
2016-07-19T06:15:18.894Z,1668
2016-07-19T06:16:19.591Z,1672
2016-07-19T06:17:18.877Z,1680
2016-07-19T06:18:19.573Z,1688
2016-07-19T06:19:19.563Z,1692
2016-07-19T06:20:18.847Z,1700
2016-07-19T06:21:19.547Z,1704
2016-07-19T06:22:19.587Z,1708
2016-07-19T06:23:18.823Z,1716
2016-07-19T06:24:20.257Z,1716
2016-07-19T06:25:19.511Z,1720
2016-07-19T06:26:18.800Z,1728
2016-07-19T06:27:20.215Z,1728
2016-07-19T06:28:20.217Z,1736
2016-07-19T06:29:19.472Z,1740
2016-07-19T06:30:19.474Z,1744
2016-07-19T06:31:19.457Z,1752
2016-07-19T06:32:19.446Z,1756
2016-07-19T06:33:18.730Z,1756
2016-07-19T06:34:20.844Z,1760
2016-07-19T06:35:21.038Z,1764
2016-07-19T06:36:20.114Z,1768
2016-07-19T06:37:19.415Z,1772
2016-07-19T06:38:18.689Z,1784
2016-07-19T06:39:20.103Z,1784
2016-07-19T06:40:19.376Z,1784
2016-07-19T06:41:18.671Z,1800
2016-07-19T06:42:19.359Z,1804
2016-07-19T06:43:18.646Z,1808
2016-07-19T06:44:20.057Z,1828
2016-07-19T06:45:19.333Z,1832
2016-07-19T06:46:19.324Z,1832
2016-07-19T06:47:18.605Z,1836
2016-07-19T06:48:19.305Z,1848
2016-07-19T06:49:18.587Z,1852
2016-07-19T06:50:19.287Z,1848
2016-07-19T06:51:20.063Z,1844
2016-07-19T06:52:19.983Z,1848
2016-07-19T06:53:19.262Z,1860
2016-07-19T06:54:18.560Z,1872
2016-07-19T06:55:19.254Z,1876
2016-07-19T06:56:19.240Z,1884
2016-07-19T06:57:18.521Z,1892
2016-07-19T06:58:19.271Z,1896
2016-07-19T06:59:19.230Z,1904
2016-07-19T07:00:18.493Z,1936
2016-07-19T07:01:20.609Z,2036
2016-07-19T07:02:18.477Z,2136
2016-07-19T07:03:19.883Z,2184
2016-07-19T07:04:18.473Z,2184
2016-07-19T07:05:19.163Z,2136
2016-07-19T07:06:19.147Z,2108
2016-07-19T07:07:18.441Z,2108
2016-07-19T07:08:20.545Z,2108
2016-07-19T07:09:20.539Z,2096
2016-07-19T07:10:19.135Z,2076
2016-07-19T07:11:19.820Z,2048
2016-07-19T07:12:18.402Z,2036
2016-07-19T07:13:18.389Z,2036
2016-07-19T07:14:18.374Z,2036
2016-07-19T07:15:19.793Z,2044
2016-07-19T07:16:19.074Z,2048
2016-07-19T07:17:18.363Z,2072
2016-07-19T07:18:18.346Z,2096
2016-07-19T07:19:19.762Z,2112
2016-07-19T07:20:19.748Z,2132
2016-07-19T07:21:19.043Z,2144
2016-07-19T07:22:19.743Z,2140
2016-07-19T07:23:19.724Z,2124
2016-07-19T07:24:19.009Z,2116
2016-07-19T07:25:18.999Z,2112
2016-07-19T07:26:18.990Z,2116
2016-07-19T07:27:19.691Z,2124
2016-07-19T07:28:19.690Z,2124
2016-07-19T07:29:18.257Z,2132
2016-07-19T07:30:18.962Z,2144
2016-07-19T07:31:19.664Z,2152
2016-07-19T07:32:18.232Z,2172
2016-07-19T07:33:18.941Z,2196
2016-07-19T07:34:18.923Z,2680
2016-07-19T07:35:19.626Z,23808
2016-07-19T07:36:19.626Z,46016
2016-07-19T07:37:19.613Z,48064
2016-07-19T07:38:18.899Z,47680
2016-07-19T07:39:20.304Z,47520
2016-07-19T07:40:18.183Z,48160
2016-07-19T07:41:18.885Z,47968
2016-07-19T07:42:18.874Z,45120
2016-07-19T07:43:18.158Z,41760
2016-07-19T07:44:19.576Z,42944
2016-07-19T07:45:18.854Z,46848
2016-07-19T07:46:18.854Z,50368
2016-07-19T07:47:18.142Z,50944
2016-07-19T07:48:18.841Z,50976
2016-07-19T07:49:20.254Z,50112
2016-07-19T07:50:18.127Z,46336
2016-07-19T07:51:18.830Z,41600
2016-07-19T07:52:18.115Z,40736
2016-07-19T07:53:18.119Z,43584
2016-07-19T07:54:18.831Z,47744
2016-07-19T07:55:18.821Z,50016
2016-07-19T07:56:19.540Z,51904
2016-07-19T07:57:19.521Z,53056
2016-07-19T07:58:19.524Z,52640
2016-07-19T07:59:18.816Z,48352
2016-07-19T08:00:18.809Z,45376
2016-07-19T08:01:18.107Z,45408
2016-07-19T08:02:19.519Z,47680
2016-07-19T08:03:18.805Z,49120
2016-07-19T08:04:18.100Z,48192
2016-07-19T08:05:18.106Z,47072
2016-07-19T08:06:19.527Z,47520
2016-07-19T08:07:18.088Z,48000
2016-07-19T08:08:18.099Z,48896
2016-07-19T08:09:19.522Z,51200
2016-07-19T08:10:19.518Z,56064
2016-07-19T08:11:20.219Z,58496
2016-07-19T08:12:19.517Z,57440
2016-07-19T08:13:19.508Z,53568
2016-07-19T08:14:20.228Z,49952
2016-07-19T08:15:18.862Z,49056
2016-07-19T08:16:19.522Z,50368
2016-07-19T08:17:18.098Z,51392
2016-07-19T08:18:19.513Z,52832
2016-07-19T08:19:18.096Z,54912
2016-07-19T08:20:19.519Z,56768
2016-07-19T08:21:19.515Z,57440
2016-07-19T08:22:18.812Z,57984
2016-07-19T08:23:18.810Z,59040
2016-07-19T08:24:18.813Z,60736
2016-07-19T08:25:18.819Z,62016
2016-07-19T08:26:18.108Z,60928
2016-07-19T08:27:19.531Z,57728
2016-07-19T08:28:18.108Z,53856
2016-07-19T08:29:18.117Z,51168
2016-07-19T08:30:18.113Z,49792
2016-07-19T08:31:18.125Z,49792
2016-07-19T08:32:18.119Z,51328
2016-07-19T08:33:18.828Z,54752
2016-07-19T08:34:18.833Z,56160
2016-07-19T08:35:18.332Z,56704
2016-07-19T08:36:18.831Z,54912
2016-07-19T08:37:18.837Z,53152
2016-07-19T08:38:18.842Z,52800
2016-07-19T08:39:19.550Z,52544
2016-07-19T08:40:18.841Z,52320
2016-07-19T08:41:19.556Z,53856
2016-07-19T08:42:18.147Z,55936
2016-07-19T08:43:19.145Z,56608
2016-07-19T08:44:19.567Z,54720
2016-07-19T08:45:18.859Z,52736
2016-07-19T08:46:19.579Z,50560
2016-07-19T08:47:18.156Z,49952
2016-07-19T08:48:18.162Z,35552
2016-07-19T08:49:19.578Z,18848
2016-07-19T08:50:18.876Z,14912
2016-07-19T08:51:18.888Z,7264
2016-07-19T08:52:18.167Z,8164
2016-07-19T08:53:18.888Z,6864
2016-07-19T08:54:18.179Z,21728
2016-07-19T08:55:18.885Z,30944
2016-07-19T08:56:19.724Z,37536
2016-07-19T08:57:20.325Z,36864
2016-07-19T08:58:19.599Z,48160
2016-07-19T08:59:18.905Z,38368
2016-07-19T09:00:18.903Z,11252
2016-07-19T09:01:19.613Z,4736
2016-07-19T09:02:18.188Z,5656
2016-07-19T09:03:18.894Z,4956
2016-07-19T09:04:18.196Z,3420
2016-07-19T09:05:18.241Z,8376
2016-07-19T09:06:18.906Z,15108
2016-07-19T09:07:18.906Z,24992
2016-07-19T09:08:19.610Z,39392
2016-07-19T09:09:18.897Z,30368
2016-07-19T09:10:18.901Z,19232
2016-07-19T09:11:18.952Z,22752
2016-07-19T09:12:19.629Z,12988
2016-07-19T09:13:18.901Z,6668
2016-07-19T09:14:18.915Z,10360
2016-07-19T09:15:19.597Z,12728
2016-07-19T09:16:18.192Z,13868
2016-07-19T09:17:18.190Z,29408
2016-07-19T09:18:19.597Z,23456
2016-07-19T09:19:20.306Z,23392
2016-07-19T09:20:18.893Z,33632
2016-07-19T09:21:18.183Z,50592
2016-07-19T09:22:18.878Z,63840
2016-07-19T09:23:18.174Z,83968
2016-07-19T09:24:18.180Z,83584
2016-07-19T09:25:18.883Z,81152
2016-07-19T09:26:19.583Z,81056
2016-07-19T09:27:19.605Z,80032
2016-07-19T09:28:18.877Z,75456
2016-07-19T09:29:18.168Z,71712
2016-07-19T09:30:18.173Z,51968
2016-07-19T09:31:18.879Z,37536
2016-07-19T09:32:20.289Z,31712
2016-07-19T09:33:18.878Z,33792
2016-07-19T09:34:18.884Z,56384
2016-07-19T09:35:18.875Z,62784
2016-07-19T09:36:18.881Z,56672
2016-07-19T09:37:18.892Z,61376
2016-07-19T09:38:20.297Z,48960
2016-07-19T09:39:18.877Z,32736
2016-07-19T09:40:18.880Z,33888
2016-07-19T09:41:18.877Z,27488
2016-07-19T09:42:18.189Z,31488
2016-07-19T09:43:18.882Z,58304
2016-07-19T09:44:18.878Z,59776
2016-07-19T09:45:18.883Z,41792
2016-07-19T09:46:19.597Z,48768
2016-07-19T09:47:18.883Z,57216
2016-07-19T09:48:18.174Z,66080
2016-07-19T09:49:18.886Z,70048
2016-07-19T09:50:18.894Z,68576
2016-07-19T09:51:18.891Z,43296
2016-07-19T09:52:18.884Z,36704
2016-07-19T09:53:18.891Z,23712
2016-07-19T09:54:18.179Z,15212
2016-07-19T09:55:18.886Z,26624
2016-07-19T09:56:18.887Z,21120
2016-07-19T09:57:18.183Z,9392
2016-07-19T09:58:19.599Z,6720
2016-07-19T09:59:19.598Z,10264
2016-07-19T10:00:19.599Z,18528
2016-07-19T10:01:20.323Z,32736
2016-07-19T10:02:19.600Z,44896
2016-07-19T10:03:18.888Z,37312
2016-07-19T10:04:19.592Z,5820
2016-07-19T10:05:18.188Z,12592
2016-07-19T10:06:19.590Z,32064
2016-07-19T10:07:19.591Z,33792
2016-07-19T10:08:18.877Z,13656
2016-07-19T10:09:18.887Z,14832
2016-07-19T10:10:19.588Z,19168
2016-07-19T10:11:18.173Z,32160
2016-07-19T10:12:18.879Z,46304
2016-07-19T10:13:18.882Z,51136
2016-07-19T10:14:18.167Z,63968
2016-07-19T10:15:18.882Z,81216
2016-07-19T10:16:18.881Z,91776
2016-07-19T10:17:18.871Z,83392
2016-07-19T10:18:20.285Z,75392
2016-07-19T10:19:19.575Z,68864
2016-07-19T10:20:19.576Z,65760
2016-07-19T10:21:18.870Z,69472
2016-07-19T10:22:18.166Z,78528
2016-07-19T10:23:19.584Z,80096
2016-07-19T10:24:18.879Z,62080
2016-07-19T10:25:19.597Z,49696
2016-07-19T10:26:19.586Z,53984
2016-07-19T10:27:18.876Z,65536
2016-07-19T10:28:18.880Z,72960
2016-07-19T10:29:19.596Z,85568
2016-07-19T10:30:18.881Z,80416
2016-07-19T10:31:18.896Z,77120
2016-07-19T10:32:18.194Z,79360
2016-07-19T10:33:18.890Z,84224
2016-07-19T10:34:19.601Z,90688
2016-07-19T10:35:19.136Z,94720
2016-07-19T10:36:18.194Z,98336
2016-07-19T10:37:18.904Z,101248
2016-07-19T10:38:18.906Z,100000
2016-07-19T10:39:18.913Z,99072
2016-07-19T10:40:18.916Z,98080
2016-07-19T10:41:19.633Z,99008
2016-07-19T10:42:18.231Z,99456
2016-07-19T10:43:18.219Z,100160
2016-07-19T10:44:18.934Z,99424
2016-07-19T10:45:18.933Z,96032
2016-07-19T10:46:18.241Z,91552
2016-07-19T10:47:19.653Z,88672
2016-07-19T10:48:18.953Z,88128
2016-07-19T10:49:19.667Z,90336
2016-07-19T10:50:18.963Z,94688
2016-07-19T10:51:19.680Z,98720
2016-07-19T10:52:18.973Z,103104
2016-07-19T10:53:18.975Z,104416
2016-07-19T10:54:19.692Z,101472
2016-07-19T10:55:18.989Z,94624
2016-07-19T10:56:19.701Z,88448
2016-07-19T10:57:18.302Z,83936
2016-07-19T10:58:19.009Z,80896
2016-07-19T10:59:19.013Z,82208
2016-07-19T11:00:19.739Z,88896
2016-07-19T11:01:19.028Z,98272
2016-07-19T11:02:19.037Z,106656
2016-07-19T11:03:19.037Z,111200
2016-07-19T11:04:18.347Z,113344
2016-07-19T11:05:19.057Z,111936
2016-07-19T11:06:18.353Z,106880
2016-07-19T11:07:19.766Z,100448
2016-07-19T11:08:19.783Z,95072
2016-07-19T11:09:19.077Z,93152
2016-07-19T11:10:19.790Z,94016
2016-07-19T11:11:18.383Z,98080
2016-07-19T11:12:18.393Z,104192
2016-07-19T11:13:19.813Z,110208
2016-07-19T11:14:20.523Z,113056
2016-07-19T11:15:18.417Z,114176
2016-07-19T11:16:19.124Z,110368
2016-07-19T11:17:19.128Z,104448
2016-07-19T11:18:19.839Z,97024
2016-07-19T11:19:19.849Z,92256
2016-07-19T11:20:19.856Z,87616
2016-07-19T11:21:19.863Z,86528
2016-07-19T11:22:19.160Z,85408
2016-07-19T11:23:18.457Z,88224
2016-07-19T11:24:20.582Z,92832
2016-07-19T11:25:18.470Z,96320
2016-07-19T11:26:20.601Z,99712
2016-07-19T11:27:19.187Z,102464
2016-07-19T11:28:18.500Z,105312
2016-07-19T11:29:18.499Z,108608
2016-07-19T11:30:18.504Z,110496
2016-07-19T11:31:19.222Z,110272
2016-07-19T11:32:19.229Z,108928
2016-07-19T11:33:19.231Z,104096
2016-07-19T11:34:19.958Z,99520
2016-07-19T11:35:19.254Z,93920
2016-07-19T11:36:19.256Z,89088
2016-07-19T11:37:20.200Z,86656
2016-07-19T11:38:19.986Z,86528
2016-07-19T11:39:19.983Z,88160
2016-07-19T11:40:18.595Z,91616
2016-07-19T11:41:19.293Z,96160
2016-07-19T11:42:20.007Z,102016
2016-07-19T11:43:20.028Z,105216
2016-07-19T11:44:20.037Z,106176
2016-07-19T11:45:20.023Z,105536
2016-07-19T11:46:19.327Z,103680
2016-07-19T11:47:18.621Z,100768
2016-07-19T11:48:19.341Z,98304
2016-07-19T11:49:20.065Z,92992
2016-07-19T11:50:20.767Z,89376
2016-07-19T11:51:19.365Z,83744
2016-07-19T11:52:19.366Z,77952
2016-07-19T11:53:20.082Z,73664
2016-07-19T11:54:20.093Z,70944
2016-07-19T11:55:19.396Z,71488
2016-07-19T11:56:19.398Z,74560
2016-07-19T11:57:20.824Z,80704
2016-07-19T11:58:19.410Z,89760
2016-07-19T11:59:19.420Z,98528
2016-07-19T12:00:20.130Z,105920
2016-07-19T12:01:20.140Z,109824
2016-07-19T12:02:19.441Z,108192
2016-07-19T12:03:19.445Z,101952
2016-07-19T12:04:20.864Z,93184
2016-07-19T12:05:20.175Z,84448
2016-07-19T12:06:20.914Z,75680
2016-07-19T12:07:19.479Z,71712
2016-07-19T12:08:19.532Z,71040
2016-07-19T12:09:19.510Z,76000
2016-07-19T12:10:19.508Z,81088
2016-07-19T12:11:20.225Z,89184
2016-07-19T12:12:20.260Z,98240
2016-07-19T12:13:19.550Z,103008
2016-07-19T12:14:19.532Z,102176
2016-07-19T12:15:19.551Z,100448
2016-07-19T12:16:19.556Z,95136
2016-07-19T12:17:19.581Z,89568
2016-07-19T12:18:18.860Z,83552
2016-07-19T12:19:18.861Z,81024
2016-07-19T12:20:18.879Z,83520
2016-07-19T12:21:19.590Z,86784
2016-07-19T12:22:19.589Z,90912
2016-07-19T12:23:20.309Z,95776
2016-07-19T12:24:19.611Z,98528
2016-07-19T12:25:19.650Z,96288
2016-07-19T12:26:19.644Z,92256
2016-07-19T12:27:18.928Z,86496
2016-07-19T12:28:20.373Z,81888
2016-07-19T12:29:19.662Z,75968
2016-07-19T12:30:21.076Z,72864
2016-07-19T12:31:21.081Z,74016
2016-07-19T12:32:19.669Z,80160
2016-07-19T12:33:20.393Z,87648
2016-07-19T12:34:19.744Z,94304
2016-07-19T12:35:21.120Z,99072
2016-07-19T12:36:19.698Z,100704
2016-07-19T12:37:18.986Z,99552
2016-07-19T12:38:20.414Z,96768
2016-07-19T12:39:20.420Z,91456
2016-07-19T12:40:20.435Z,87392
2016-07-19T12:41:20.436Z,83424
2016-07-19T12:42:19.748Z,82624
2016-07-19T12:43:21.163Z,82784
2016-07-19T12:44:19.751Z,80672
2016-07-19T12:45:19.767Z,79648
2016-07-19T12:46:20.482Z,78048
2016-07-19T12:47:20.481Z,79712
2016-07-19T12:48:19.786Z,81536
2016-07-19T12:49:19.796Z,85696
2016-07-19T12:50:19.810Z,90304
2016-07-19T12:51:19.100Z,96032
2016-07-19T12:52:20.530Z,100384
2016-07-19T12:53:19.876Z,99840
2016-07-19T12:54:19.838Z,95968
2016-07-19T12:55:19.131Z,91360
2016-07-19T12:56:21.320Z,86144
2016-07-19T12:57:19.868Z,82720
2016-07-19T12:58:19.860Z,82016
2016-07-19T12:59:19.876Z,83200
2016-07-19T13:00:19.892Z,86432
2016-07-19T13:01:19.930Z,93536
2016-07-19T13:02:19.215Z,99424
2016-07-19T13:03:19.896Z,105152
2016-07-19T13:04:19.913Z,107808
2016-07-19T13:05:19.919Z,107296
2016-07-19T13:06:19.214Z,104448
2016-07-19T13:07:20.648Z,99328
2016-07-19T13:08:19.951Z,91840
2016-07-19T13:09:20.651Z,86048
2016-07-19T13:10:19.955Z,82528
2016-07-19T13:11:20.674Z,80800
2016-07-19T13:12:19.264Z,80768
2016-07-19T13:13:19.984Z,81792
2016-07-19T13:14:19.988Z,88128
2016-07-19T13:15:20.703Z,93952
2016-07-19T13:16:20.001Z,98976
2016-07-19T13:17:19.311Z,102912
2016-07-19T13:18:19.318Z,106400
2016-07-19T13:19:19.328Z,106656
2016-07-19T13:20:20.041Z,105120
2016-07-19T13:21:20.752Z,103968
2016-07-19T13:22:20.758Z,102048
2016-07-19T13:23:20.063Z,99776
2016-07-19T13:24:20.069Z,98816
2016-07-19T13:25:20.085Z,100128
2016-07-19T13:26:19.437Z,97120
2016-07-19T13:27:20.086Z,95040
2016-07-19T13:28:20.811Z,92384